Wetterstation Vordersexau
Wetterdaten: Woche 02.01.17 - 08.01.17 (KW1)
Datum Zeit Temp. A. Feuchte A. Luftdruck Regen Wind Richtung Taupunkt Windchill Windben
02.01.2017 00:00 -0,4 C 86 % 1019,1 hPa 0,0 l/m 0,0 km/h W -2,4 C -0,4 C 0,0 km/h
02.01.2017 01:00 -0,4 C 85 % 1019,0 hPa 0,0 l/m 0,0 km/h S -2,6 C -0,4 C 0,0 km/h
02.01.2017 02:00 -0,4 C 85 % 1018,7 hPa 0,0 l/m 0,0 km/h W-NW -2,6 C -0,4 C 0,0 km/h
02.01.2017 03:00 -0,5 C 84 % 1018,8 hPa 0,0 l/m 0,0 km/h W -2,9 C -0,5 C 0,0 km/h
02.01.2017 04:00 -0,6 C 84 % 1019,1 hPa 0,0 l/m 0,0 km/h W -3,0 C -0,6 C 0,0 km/h
02.01.2017 05:00 -0,8 C 83 % 1019,2 hPa 0,0 l/m 0,0 km/h S-SO -3,3 C -0,8 C 0,0 km/h
02.01.2017 06:00 -0,9 C 83 % 1019,5 hPa 0,0 l/m 0,0 km/h S -3,4 C -0,9 C 0,0 km/h
02.01.2017 07:00 -0,9 C 83 % 1019,7 hPa 0,0 l/m 0,0 km/h S -3,4 C -0,9 C 0,0 km/h
02.01.2017 08:00 -0,8 C 82 % 1019,8 hPa 0,0 l/m 0,0 km/h O-SO -3,5 C -0,8 C 0,0 km/h
02.01.2017 09:00 -0,6 C 82 % 1020,0 hPa 0,0 l/m 0,0 km/h W -3,3 C -0,6 C 0,0 km/h
02.01.2017 10:00 -0,4 C 81 % 1020,2 hPa 0,0 l/m 0,0 km/h S-SW -3,3 C -0,4 C 0,0 km/h
02.01.2017 11:00 0,1 C 81 % 1020,5 hPa 0,0 l/m 0,0 km/h S-SW -2,8 C 0,1 C 0,0 km/h
02.01.2017 12:00 0,4 C 80 % 1020,1 hPa 0,0 l/m 0,0 km/h SW -2,6 C 0,4 C 0,0 km/h
02.01.2017 13:00 0,2 C 81 % 1019,8 hPa 0,0 l/m 0,0 km/h W-NW -2,7 C 0,2 C 0,0 km/h
02.01.2017 14:00 0,2 C 82 % 1020,0 hPa 0,0 l/m 0,0 km/h W-NW -2,5 C 0,2 C 0,0 km/h
02.01.2017 15:00 0,4 C 83 % 1020,2 hPa 0,0 l/m 0,0 km/h W-NW -2,1 C 0,4 C 0,0 km/h
02.01.2017 16:00 0,2 C 83 % 1020,6 hPa 0,0 l/m 0,0 km/h W-NW -2,3 C 0,2 C 0,0 km/h
02.01.2017 17:00 -0,1 C 83 % 1021,2 hPa 0,0 l/m 0,0 km/h W-NW -2,6 C -0,1 C 0,0 km/h
02.01.2017 18:00 -0,2 C 83 % 1021,2 hPa 0,0 l/m 0,0 km/h W-NW -2,7 C -0,2 C 0,0 km/h
02.01.2017 19:00 -0,2 C 83 % 1021,6 hPa 0,0 l/m 0,0 km/h W-NW -2,7 C -0,2 C 0,0 km/h
02.01.2017 20:00 -0,5 C 83 % 1022,1 hPa 0,0 l/m 0,0 km/h W-NW -3,0 C -0,5 C 0,0 km/h
02.01.2017 21:00 -0,6 C 83 % 1022,9 hPa 0,0 l/m 0,0 km/h W-NW -3,1 C -0,6 C 0,0 km/h
02.01.2017 22:00 -1,2 C 83 % 1023,2 hPa 0,0 l/m 0,0 km/h W-NW -3,7 C -1,2 C 0,0 km/h
02.01.2017 23:00 -1,2 C 83 % 1023,6 hPa 0,0 l/m 0,0 km/h W-NW -3,7 C -1,2 C 0,0 km/h
03.01.2017 00:00 -2,6 C 84 % 1024,1 hPa 0,0 l/m 0,0 km/h W-NW -4,9 C -2,6 C 0,0 km/h
03.01.2017 01:00 -2,2 C 83 % 1024,0 hPa 0,0 l/m 0,0 km/h W-NW -4,7 C -2,2 C 0,0 km/h
03.01.2017 02:00 -2,4 C 83 % 1024,2 hPa 0,0 l/m 0,0 km/h W-NW -4,9 C -2,4 C 0,0 km/h
03.01.2017 03:00 -2,1 C 82 % 1024,7 hPa 0,0 l/m 0,0 km/h W-NW -4,7 C -2,1 C 0,0 km/h
03.01.2017 04:00 -2,2 C 82 % 1025,0 hPa 0,0 l/m 0,0 km/h W-NW -4,8 C -2,2 C 0,0 km/h
03.01.2017 05:00 -2,2 C 82 % 1025,2 hPa 0,0 l/m 0,0 km/h W-NW -4,8 C -2,2 C 0,0 km/h
03.01.2017 06:00 -2,8 C 83 % 1025,5 hPa 0,0 l/m 0,0 km/h W-NW -5,3 C -2,8 C 0,0 km/h
03.01.2017 07:00 -3,2 C 83 % 1025,7 hPa 0,0 l/m 0,0 km/h W-NW -5,7 C -3,2 C 0,0 km/h
03.01.2017 08:00 -3,6 C 83 % 1026,0 hPa 0,0 l/m 0,0 km/h W-NW -6,1 C -3,6 C 0,0 km/h
03.01.2017 09:00 -4,2 C 83 % 1025,8 hPa 0,0 l/m 0,0 km/h W-NW -6,6 C -4,2 C 0,0 km/h
03.01.2017 10:00 -3,4 C 83 % 1026,4 hPa 0,0 l/m 0,0 km/h W-NW -5,9 C -3,4 C 0,0 km/h
03.01.2017 11:00 -1,7 C 81 % 1026,4 hPa 0,0 l/m 0,0 km/h W-NW -4,5 C -1,7 C 0,0 km/h
03.01.2017 12:00 -0,2 C 86 % 1026,0 hPa 0,0 l/m 0,0 km/h W-NW -2,3 C -0,2 C 0,0 km/h
03.01.2017 13:00 -0,8 C 87 % 1025,8 hPa 0,0 l/m 0,0 km/h W-NW -2,7 C -0,8 C 0,0 km/h
03.01.2017 14:00 -0,6 C 87 % 1025,1 hPa 0,0 l/m 0,0 km/h W-NW -2,5 C -0,6 C 0,0 km/h
03.01.2017 15:00 -1,4 C 87 % 1024,8 hPa 0,0 l/m 0,0 km/h W-NW -3,3 C -1,4 C 0,0 km/h
03.01.2017 16:00 -2,2 C 87 % 1024,8 hPa 0,0 l/m 0,0 km/h W-NW -4,1 C -2,2 C 0,0 km/h
03.01.2017 17:00 -2,7 C 87 % 1024,6 hPa 0,0 l/m 0,0 km/h W-NW -4,6 C -2,7 C 0,0 km/h
03.01.2017 18:00 -3,1 C 87 % 1024,9 hPa 0,0 l/m 0,0 km/h W-NW -4,9 C -3,1 C 0,0 km/h
03.01.2017 19:00 -3,1 C 86 % 1024,8 hPa 0,0 l/m 0,0 km/h W-NW -5,1 C -3,1 C 0,0 km/h
03.01.2017 20:00 -2,9 C 86 % 1024,8 hPa 0,0 l/m 0,0 km/h W-NW -4,9 C -2,9 C 0,0 km/h
03.01.2017 21:00 -2,7 C 86 % 1024,2 hPa 0,0 l/m 0,0 km/h W-NW -4,7 C -2,7 C 0,0 km/h
03.01.2017 22:00 -2,6 C 86 % 1023,9 hPa 0,0 l/m 0,0 km/h SO -4,6 C -2,6 C 0,0 km/h
03.01.2017 23:00 -2,4 C 86 % 1023,4 hPa 0,0 l/m 0,0 km/h SO -4,4 C -2,4 C 0,0 km/h
04.01.2017 00:00 -2,2 C 86 % 1023,2 hPa 0,0 l/m 0,0 km/h SO -4,2 C -2,2 C 0,0 km/h
04.01.2017 01:00 -2,4 C 86 % 1022,2 hPa 0,0 l/m 0,0 km/h SO -4,4 C -2,4 C 0,0 km/h
04.01.2017 02:00 -2,6 C 86 % 1021,4 hPa 0,0 l/m 0,0 km/h SO -4,6 C -2,6 C 0,0 km/h
04.01.2017 03:00 -2,9 C 86 % 1021,6 hPa 0,0 l/m 0,0 km/h SO -4,9 C -2,9 C 0,0 km/h
04.01.2017 04:00 -3,1 C 86 % 1020,9 hPa 0,0 l/m 0,0 km/h SO -5,1 C -3,1 C 0,0 km/h
04.01.2017 05:00 -2,4 C 85 % 1020,1 hPa 0,0 l/m 0,0 km/h SO -4,6 C -2,4 C 0,0 km/h
04.01.2017 06:00 -2,1 C 85 % 1019,5 hPa 0,0 l/m 0,0 km/h NW -4,3 C -2,1 C 0,0 km/h
04.01.2017 07:00 -1,6 C 85 % 1018,8 hPa 0,0 l/m 0,0 km/h W-NW -3,8 C -1,6 C 0,0 km/h
04.01.2017 08:00 -0,7 C 87 % 1018,6 hPa 0,0 l/m 1,9 km/h W -2,6 C -0,7 C 1,1 km/h
04.01.2017 09:00 -0,3 C 87 % 1018,6 hPa 0,0 l/m 0,0 km/h W-SW -2,2 C -0,3 C 0,0 km/h
04.01.2017 10:00 0,2 C 87 % 1018,3 hPa 0,0 l/m 21,4 km/h W-SW -1,7 C -10,0 C 11,9 km/h
04.01.2017 11:00 0,4 C 85 % 1018,2 hPa 0,0 l/m 16,2 km/h S-SW -1,8 C -7,2 C 9,0 km/h
04.01.2017 12:00 0,6 C 85 % 1017,5 hPa 0,0 l/m 33,0 km/h W-SW -1,6 C -13,4 C 18,4 km/h
04.01.2017 13:00 0,9 C 84 % 1017,0 hPa 0,0 l/m 33,7 km/h S -1,5 C -13,2 C 18,7 km/h
04.01.2017 14:00 0,8 C 84 % 1016,4 hPa 0,0 l/m 33,0 km/h W-SW -1,6 C -13,1 C 18,4 km/h
04.01.2017 15:00 0,7 C 85 % 1016,4 hPa 0,0 l/m 6,5 km/h W-SW -1,5 C 0,6 C 3,6 km/h
04.01.2017 16:00 0,5 C 86 % 1016,3 hPa 0,0 l/m 19,4 km/h W-SW -1,6 C -8,7 C 10,8 km/h
04.01.2017 17:00 0,3 C 87 % 1016,4 hPa 0,0 l/m 8,4 km/h S-SW -1,6 C -1,7 C 4,7 km/h
04.01.2017 18:00 0,1 C 87 % 1016,5 hPa 0,0 l/m 0,0 km/h SW -1,8 C 0,1 C 0,0 km/h
04.01.2017 19:00 0,2 C 87 % 1016,8 hPa 0,0 l/m 0,0 km/h W-NW -1,7 C 0,2 C 0,0 km/h
04.01.2017 20:00 0,3 C 87 % 1017,5 hPa 0,0 l/m 0,0 km/h W -1,6 C 0,3 C 0,0 km/h
04.01.2017 21:00 0,4 C 87 % 1017,7 hPa 0,0 l/m 0,0 km/h W -1,5 C 0,4 C 0,0 km/h
04.01.2017 22:00 0,4 C 87 % 1017,8 hPa 0,0 l/m 0,0 km/h W -1,5 C 0,4 C 0,0 km/h
04.01.2017 23:00 0,4 C 87 % 1017,8 hPa 0,0 l/m 0,0 km/h W -1,5 C 0,4 C 0,0 km/h
05.01.2017 00:00 0,2 C 87 % 1018,1 hPa 0,0 l/m 0,0 km/h W -1,7 C 0,2 C 0,0 km/h
05.01.2017 01:00 -0,1 C 87 % 1018,4 hPa 0,0 l/m 0,0 km/h W -2,0 C -0,1 C 0,0 km/h
05.01.2017 02:00 -0,2 C 86 % 1019,0 hPa 0,0 l/m 0,0 km/h S-SW -2,3 C -0,2 C 0,0 km/h
05.01.2017 03:00 -0,1 C 86 % 1019,7 hPa 0,0 l/m 0,0 km/h S-SW -2,2 C -0,1 C 0,0 km/h
05.01.2017 04:00 -0,8 C 86 % 1020,2 hPa 0,0 l/m 0,0 km/h S-SW -2,8 C -0,8 C 0,0 km/h
05.01.2017 05:00 -1,5 C 86 % 1021,2 hPa 0,0 l/m 0,0 km/h SW -3,5 C -1,5 C 0,0 km/h
05.01.2017 06:00 -2,5 C 87 % 1021,5 hPa 0,0 l/m 0,0 km/h S-SW -4,4 C -2,5 C 0,0 km/h
05.01.2017 07:00 -3,7 C 86 % 1021,6 hPa 0,0 l/m 0,0 km/h S-SW -5,7 C -3,7 C 0,0 km/h
05.01.2017 08:00 -3,9 C 86 % 1022,1 hPa 0,0 l/m 0,0 km/h SO -5,9 C -3,9 C 0,0 km/h
05.01.2017 09:00 -2,9 C 86 % 1022,5 hPa 0,0 l/m 0,0 km/h SO -4,9 C -2,9 C 0,0 km/h
05.01.2017 10:00 -1,5 C 85 % 1023,3 hPa 0,0 l/m 0,0 km/h SO -3,7 C -1,5 C 0,0 km/h
05.01.2017 11:00 1,3 C 82 % 1023,7 hPa 0,0 l/m 0,0 km/h SO -1,4 C 1,3 C 0,0 km/h
05.01.2017 12:00 4,8 C 83 % 1024,0 hPa 0,0 l/m 0,0 km/h N 2,2 C 4,8 C 0,0 km/h
05.01.2017 13:00 4,1 C 70 % 1024,0 hPa 0,0 l/m 0,0 km/h N-NO -0,9 C 4,1 C 0,0 km/h
05.01.2017 14:00 2,9 C 78 % 1024,8 hPa 0,5 l/m 0,0 km/h N -0,5 C 2,9 C 0,0 km/h
05.01.2017 15:00 6,4 C 64 % 1025,3 hPa 1,0 l/m 0,0 km/h N 0,1 C 6,4 C 0,0 km/h
05.01.2017 16:00 6,3 C 59 % 1026,1 hPa 0,5 l/m 0,0 km/h N -1,1 C 6,3 C 0,0 km/h
05.01.2017 17:00 -2,5 C 73 % 1027,2 hPa 0,0 l/m 0,0 km/h N -6,7 C -2,5 C 0,0 km/h
05.01.2017 18:00 -4,8 C 80 % 1028,1 hPa 0,0 l/m 0,0 km/h N -7,7 C -4,8 C 0,0 km/h
05.01.2017 19:00 -7,1 C 82 % 1029,2 hPa 0,0 l/m 0,0 km/h N -9,6 C -7,1 C 0,0 km/h
05.01.2017 20:00 -8,6 C 84 % 1030,0 hPa 0,0 l/m 0,0 km/h N -10,8 C -8,6 C 0,0 km/h
05.01.2017 21:00 -8,4 C 85 % 1030,5 hPa 0,0 l/m 0,0 km/h N -10,5 C -8,4 C 0,0 km/h
05.01.2017 22:00 -8,8 C 86 % 1031,2 hPa 0,0 l/m 0,0 km/h N -10,7 C -8,8 C 0,0 km/h
05.01.2017 23:00 -9,2 C 86 % 1031,8 hPa 0,0 l/m 0,0 km/h N -11,1 C -9,2 C 0,0 km/h
06.01.2017 00:00 -10,4 C 86 % 1032,8 hPa 0,0 l/m 0,0 km/h N -12,3 C -10,4 C 0,0 km/h
06.01.2017 01:00 -11,3 C 86 % 1033,2 hPa 0,0 l/m 0,0 km/h N -13,2 C -11,3 C 0,0 km/h
06.01.2017 02:00 -11,4 C 86 % 1033,5 hPa 0,0 l/m 0,0 km/h N -13,3 C -11,4 C 0,0 km/h
06.01.2017 03:00 -11,1 C 87 % 1033,5 hPa 0,0 l/m 0,0 km/h N -12,8 C -11,1 C 0,0 km/h
06.01.2017 04:00 -12,3 C 87 % 1033,8 hPa 0,0 l/m 0,0 km/h N -14,0 C -12,3 C 0,0 km/h
06.01.2017 05:00 -12,7 C 86 % 1033,8 hPa 0,0 l/m 0,0 km/h N -14,5 C -12,7 C 0,0 km/h
06.01.2017 06:00 -12,2 C 87 % 1034,2 hPa 0,0 l/m 0,0 km/h N -13,9 C -12,2 C 0,0 km/h
06.01.2017 07:00 -12,7 C 86 % 1034,9 hPa 0,0 l/m 0,0 km/h N -14,5 C -12,7 C 0,0 km/h
06.01.2017 08:00 -13,2 C 86 % 1035,1 hPa 0,0 l/m 0,0 km/h N -15,0 C -13,2 C 0,0 km/h
06.01.2017 09:00 -10,5 C 87 % 1035,6 hPa 0,0 l/m 0,0 km/h N -12,2 C -10,5 C 0,0 km/h
06.01.2017 10:00 -3,6 C 86 % 1036,1 hPa 0,0 l/m 0,0 km/h N -5,6 C -3,6 C 0,0 km/h
06.01.2017 11:00 0,2 C 76 % 1035,8 hPa 0,0 l/m 0,0 km/h N -3,5 C 0,2 C 0,0 km/h
06.01.2017 12:00 1,4 C 65 % 1035,1 hPa 0,0 l/m 0,0 km/h N -4,4 C 1,4 C 0,0 km/h
06.01.2017 13:00 2,3 C 63 % 1034,7 hPa 0,0 l/m 0,0 km/h N -4,0 C 2,3 C 0,0 km/h
06.01.2017 14:00 3,5 C 59 % 1034,2 hPa 0,0 l/m 0,0 km/h N-NW -3,7 C 3,5 C 0,0 km/h
06.01.2017 15:00 4,4 C 54 % 1034,5 hPa 0,0 l/m 0,0 km/h O-SO -4,1 C 4,4 C 0,0 km/h
06.01.2017 16:00 2,9 C 53 % 1034,6 hPa 0,0 l/m 0,0 km/h O-SO -5,7 C 2,9 C 0,0 km/h
06.01.2017 17:00 -6,1 C 70 % 1034,8 hPa 0,0 l/m 0,0 km/h O-SO -10,7 C -6,1 C 0,0 km/h
06.01.2017 18:00 -8,2 C 77 % 1034,9 hPa 0,0 l/m 0,0 km/h O-SO -11,5 C -8,2 C 0,0 km/h
06.01.2017 19:00 -8,6 C 79 % 1034,4 hPa 0,0 l/m 0,0 km/h O-SO -11,6 C -8,6 C 0,0 km/h
06.01.2017 20:00 -10,2 C 81 % 1034,7 hPa 0,0 l/m 0,0 km/h O-SO -12,8 C -10,2 C 0,0 km/h
06.01.2017 21:00 -10,7 C 82 % 1034,7 hPa 0,0 l/m 0,0 km/h N-NO -13,2 C -10,7 C 0,0 km/h
06.01.2017 22:00 -11,8 C 83 % 1034,6 hPa 0,0 l/m 0,0 km/h SO -14,1 C -11,8 C 0,0 km/h
06.01.2017 23:00 -11,9 C 84 % 1034,2 hPa 0,0 l/m 0,0 km/h O -14,0 C -11,9 C 0,0 km/h
07.01.2017 00:00 -11,7 C 84 % 1034,4 hPa 0,0 l/m 0,0 km/h O-NO -13,8 C -11,7 C 0,0 km/h
07.01.2017 01:00 -11,9 C 84 % 1033,9 hPa 0,0 l/m 0,0 km/h O-SO -14,0 C -11,9 C 0,0 km/h
07.01.2017 02:00 -12,6 C 85 % 1033,5 hPa 0,0 l/m 0,0 km/h O-SO -14,6 C -12,6 C 0,0 km/h
07.01.2017 03:00 -12,9 C 84 % 1033,4 hPa 0,0 l/m 0,0 km/h O-SO -15,0 C -12,9 C 0,0 km/h
07.01.2017 04:00 -13,2 C 84 % 1033,5 hPa 0,0 l/m 0,0 km/h O-SO -15,3 C -13,2 C 0,0 km/h
07.01.2017 05:00 -13,5 C 84 % 1033,1 hPa 0,0 l/m 0,0 km/h O-SO -15,6 C -13,5 C 0,0 km/h
07.01.2017 06:00 -12,7 C 85 % 1033,0 hPa 0,0 l/m 0,0 km/h O-SO -14,7 C -12,7 C 0,0 km/h
07.01.2017 07:00 -11,9 C 85 % 1032,7 hPa 0,0 l/m 0,0 km/h O-NO -13,9 C -11,9 C 0,0 km/h
07.01.2017 08:00 -10,9 C 85 % 1032,8 hPa 0,0 l/m 0,0 km/h O-SO -12,9 C -10,9 C 0,0 km/h
07.01.2017 09:00 -9,9 C 84 % 1032,6 hPa 0,0 l/m 0,0 km/h O-SO -12,1 C -9,9 C 0,0 km/h
07.01.2017 10:00 -5,9 C 79 % 1032,5 hPa 0,0 l/m 0,0 km/h O-SO -8,9 C -5,9 C 0,0 km/h
07.01.2017 11:00 -4,1 C 76 % 1032,3 hPa 0,0 l/m 0,0 km/h O-SO -7,7 C -4,1 C 0,0 km/h
07.01.2017 12:00 -3,1 C 69 % 1032,0 hPa 0,0 l/m 0,0 km/h O-SO -8,0 C -3,1 C 0,0 km/h
07.01.2017 13:00 -2,9 C 70 % 1031,0 hPa 0,0 l/m 0,0 km/h O-SO -7,6 C -2,9 C 0,0 km/h
07.01.2017 14:00 -1,8 C 67 % 1029,8 hPa 0,0 l/m 0,0 km/h O-SO -7,1 C -1,8 C 0,0 km/h
07.01.2017 15:00 -1,8 C 68 % 1030,1 hPa 0,0 l/m 0,0 km/h O-SO -6,9 C -1,8 C 0,0 km/h
07.01.2017 16:00 -3,1 C 71 % 1029,9 hPa 0,0 l/m 0,0 km/h O-SO -7,6 C -3,1 C 0,0 km/h
07.01.2017 17:00 -3,7 C 74 % 1029,9 hPa 0,0 l/m 0,0 km/h O-SO -7,6 C -3,7 C 0,0 km/h
07.01.2017 18:00 -3,9 C 77 % 1030,0 hPa 0,0 l/m 0,0 km/h O-SO -7,3 C -3,9 C 0,0 km/h
07.01.2017 19:00 -3,9 C 78 % 1029,9 hPa 0,0 l/m 0,0 km/h O-SO -7,2 C -3,9 C 0,0 km/h
07.01.2017 20:00 -3,9 C 80 % 1029,5 hPa 0,0 l/m 0,0 km/h O-SO -6,8 C -3,9 C 0,0 km/h
07.01.2017 21:00 -3,9 C 81 % 1029,3 hPa 0,0 l/m 0,0 km/h O-SO -6,7 C -3,9 C 0,0 km/h
07.01.2017 22:00 -3,6 C 81 % 1028,8 hPa 0,0 l/m 0,0 km/h O-SO -6,4 C -3,6 C 0,0 km/h
07.01.2017 23:00 -3,4 C 81 % 1028,4 hPa 0,0 l/m 0,0 km/h NO -6,2 C -3,4 C 0,0 km/h
08.01.2017 00:00 -3,2 C 82 % 1028,5 hPa 0,0 l/m 0,0 km/h NO -5,8 C -3,2 C 0,0 km/h
08.01.2017 01:00 -3,2 C 84 % 1028,1 hPa 0,0 l/m 0,0 km/h NO -5,5 C -3,2 C 0,0 km/h
08.01.2017 02:00 -3,1 C 85 % 1028,0 hPa 0,0 l/m 0,0 km/h NO -5,3 C -3,1 C 0,0 km/h
08.01.2017 03:00 -2,9 C 86 % 1028,0 hPa 0,0 l/m 0,0 km/h NO -4,9 C -2,9 C 0,0 km/h
08.01.2017 04:00 -2,8 C 86 % 1027,8 hPa 0,0 l/m 0,0 km/h NO -4,8 C -2,8 C 0,0 km/h
08.01.2017 05:00 -2,8 C 86 % 1027,6 hPa 0,0 l/m 0,0 km/h NO -4,8 C -2,8 C 0,0 km/h
08.01.2017 06:00 -2,7 C 86 % 1027,9 hPa 0,0 l/m 0,0 km/h NO -4,7 C -2,7 C 0,0 km/h
08.01.2017 07:00 -2,7 C 86 % 1027,7 hPa 0,0 l/m 0,0 km/h NO -4,7 C -2,7 C 0,0 km/h
08.01.2017 08:00 -2,7 C 87 % 1028,0 hPa 0,0 l/m 0,0 km/h O-NO -4,6 C -2,7 C 0,0 km/h
08.01.2017 09:00 -2,2 C 87 % 1028,3 hPa 0,0 l/m 0,0 km/h O-NO -4,1 C -2,2 C 0,0 km/h
08.01.2017 10:00 -0,9 C 87 % 1028,7 hPa 0,0 l/m 0,0 km/h O-NO -2,8 C -0,9 C 0,0 km/h
08.01.2017 11:00 0,9 C 86 % 1028,4 hPa 0,0 l/m 0,0 km/h O-NO -1,2 C 0,9 C 0,0 km/h
08.01.2017 12:00 1,3 C 84 % 1028,6 hPa 0,0 l/m 0,0 km/h O-NO -1,1 C 1,3 C 0,0 km/h
08.01.2017 13:00 1,5 C 83 % 1028,0 hPa 0,5 l/m 0,0 km/h O-NO -1,1 C 1,5 C 0,0 km/h
08.01.2017 14:00 1,1 C 82 % 1028,3 hPa 0,0 l/m 0,0 km/h O-NO -1,6 C 1,1 C 0,0 km/h
08.01.2017 15:00 0,9 C 83 % 1028,4 hPa 0,0 l/m 0,0 km/h O-NO -1,7 C 0,9 C 0,0 km/h
08.01.2017 16:00 0,4 C 84 % 1028,4 hPa 0,0 l/m 0,0 km/h O-NO -2,0 C 0,4 C 0,0 km/h
08.01.2017 17:00 -0,2 C 84 % 1028,8 hPa 0,0 l/m 0,0 km/h O-NO -2,6 C -0,2 C 0,0 km/h
08.01.2017 18:00 -0,7 C 85 % 1028,7 hPa 0,0 l/m 0,0 km/h O-NO -2,9 C -0,7 C 0,0 km/h
08.01.2017 19:00 -1,0 C 86 % 1028,5 hPa 0,0 l/m 0,0 km/h O-NO -3,0 C -1,0 C 0,0 km/h
08.01.2017 20:00 -1,5 C 86 % 1028,4 hPa 0,0 l/m 0,0 km/h O-NO -3,5 C -1,5 C 0,0 km/h
08.01.2017 21:00 -1,9 C 87 % 1028,5 hPa 0,0 l/m 0,0 km/h O-NO -3,8 C -1,9 C 0,0 km/h
08.01.2017 22:00 -1,9 C 87 % 1028,8 hPa 0,0 l/m 0,0 km/h O-NO -3,8 C -1,9 C 0,0 km/h
08.01.2017 23:00 -2,1 C 87 % 1028,4 hPa 0,0 l/m 0,0 km/h O-NO -4,0 C -2,1 C 0,0 km/h
Min-Datum _ 07.01.17 06.01.17 04.01.17 - 02.01.17 - 07.01.17 07.01.17 02.01.17
_ Min-Zeit 05:10 16:10 16:10 - 00:10 - 05:10 05:10 00:10
Minimum _ -13,5 C 53 % 1016,3 hPa - 0,0 km/h - -15,6 C -13,5 C 0,0 km/h
Max-Datum _ 05.01.17 03.01.17 06.01.17 05.01.17 04.01.17 - 05.01.17 05.01.17 04.01.17
_ Max-Zeit 15:10 13:10 10:10 15:10 13:10 - 12:10 15:10 13:10
Maximum _ 6,4 C 87 % 1036,1 hPa 1,0 l/m 33,7 km/h
S
- 2,2 C 6,4 C 18,7 km/h
S
Durchschnitt _ -3,0 C 83 % 1026,1 hPa #2,6 l/m 1,0 km/h W-NW -5,6 C -3,4 C 0,6 km/h
www.sexauwetter.de